Time;durP1;ratioP1;P1;durP2;ratioP2;P2;SDS_P1;SDS_P2;PMS_P1;PMS_P2;Temp;Humidity;BMP_temperature;BMP_pressure;BME280_temperature;BME280_humidity;BME280_pressure;Samples;Min_cycle;Max_cycle;Signal;HPM_P1;HPM_P2
2020/12/14 00:00:00;;;;;;;65.97;32.42;;;3.90;99.90;;;;;;5091959;28;20244;-63
2020/12/14 00:02:28;;;;;;;66.13;29.95;;;4.00;99.90;;;;;;5090791;28;20202;-62
2020/12/14 00:04:56;;;;;;;58.50;27.75;;;3.90;99.90;;;;;;5095663;28;20209;-65
2020/12/14 00:07:23;;;;;;;53.13;28.25;;;3.80;99.90;;;;;;5093783;28;20216;-63
2020/12/14 00:09:49;;;;;;;55.83;28.17;;;3.90;99.90;;;;;;5093931;28;20576;-64
2020/12/14 00:12:17;;;;;;;51.95;29.30;;;4.00;99.90;;;;;;5091032;28;20504;-64
2020/12/14 00:14:44;;;;;;;47.22;26.52;;;4.00;99.90;;;;;;5093949;28;20212;-64
2020/12/14 00:17:10;;;;;;;48.15;27.73;;;4.00;99.90;;;;;;5089633;28;20210;-63
2020/12/14 00:19:37;;;;;;;59.17;28.25;;;4.00;99.90;;;;;;5095102;28;20241;-64
2020/12/14 00:22:03;;;;;;;43.10;24.10;;;4.00;99.90;;;;;;5095283;28;20755;-63
2020/12/14 00:24:30;;;;;;;61.65;29.50;;;4.10;99.90;;;;;;5097854;28;20216;-63
2020/12/14 00:26:56;;;;;;;50.92;24.35;;;4.00;99.90;;;;;;5094226;28;20419;-64
2020/12/14 00:29:23;;;;;;;52.28;25.38;;;4.10;99.90;;;;;;5096939;28;20202;-62
2020/12/14 00:31:53;;;;;;;52.33;26.00;;;4.00;99.90;;;;;;5091825;28;20551;-62
2020/12/14 00:34:22;;;;;;;50.33;24.92;;;4.00;99.90;;;;;;5098459;28;20282;-63
2020/12/14 00:37:03;;;;;;;51.72;26.33;;;4.00;99.90;;;;;;5097993;28;20208;-62
2020/12/14 00:39:30;;;;;;;54.92;27.98;;;4.10;99.90;;;;;;5097792;28;20217;-62
2020/12/14 00:41:57;;;;;;;67.53;30.17;;;4.10;99.90;;;;;;5096475;28;20280;-62
2020/12/14 00:44:24;;;;;;;54.92;27.55;;;4.10;99.90;;;;;;5097516;28;20210;-62
2020/12/14 00:46:51;;;;;;;49.85;25.65;;;4.10;99.90;;;;;;5097186;28;20505;-62
2020/12/14 00:49:18;;;;;;;47.08;25.48;;;4.10;99.90;;;;;;5097418;28;20209;-63
2020/12/14 00:51:44;;;;;;;52.80;28.83;;;4.10;99.90;;;;;;5099339;28;20546;-64
2020/12/14 00:54:11;;;;;;;51.75;24.75;;;4.10;99.90;;;;;;5098064;28;20496;-63
2020/12/14 00:56:37;;;;;;;54.03;25.02;;;4.00;99.90;;;;;;5092464;28;20205;-64
2020/12/14 00:59:04;;;;;;;61.42;27.80;;;4.20;99.90;;;;;;5095539;28;20202;-64
2020/12/14 01:01:31;;;;;;;51.80;24.95;;;4.10;99.90;;;;;;5099227;28;20495;-64
2020/12/14 01:03:58;;;;;;;43.47;26.30;;;4.10;99.90;;;;;;5092897;28;20210;-64
2020/12/14 01:06:25;;;;;;;51.35;24.63;;;4.10;99.90;;;;;;5091248;28;20205;-64
2020/12/14 01:08:51;;;;;;;41.67;23.05;;;4.20;99.90;;;;;;5094265;28;20384;-63
2020/12/14 01:11:27;;;;;;;52.58;25.95;;;4.20;99.90;;;;;;5096863;28;20296;-63
2020/12/14 01:13:54;;;;;;;61.38;27.20;;;4.10;99.90;;;;;;5094085;28;20236;-64
2020/12/14 01:16:21;;;;;;;59.90;27.85;;;4.10;99.90;;;;;;5098466;28;20208;-65
2020/12/14 01:18:48;;;;;;;51.35;26.40;;;4.20;99.90;;;;;;5099158;28;20423;-63
2020/12/14 01:21:23;;;;;;;49.72;24.73;;;4.10;99.90;;;;;;5091174;28;20232;-64
2020/12/14 01:23:50;;;;;;;49.17;26.25;;;3.90;99.90;;;;;;5097734;28;20629;-64
2020/12/14 01:26:18;;;;;;;50.08;24.98;;;4.10;99.90;;;;;;5097568;28;20259;-63
2020/12/14 01:28:44;;;;;;;61.65;27.60;;;4.20;99.90;;;;;;5097225;28;20203;-63
2020/12/14 01:31:12;;;;;;;46.00;22.88;;;4.30;99.90;;;;;;5092405;28;20225;-64
2020/12/14 01:33:39;;;;;;;48.58;25.70;;;4.20;99.90;;;;;;5092060;28;20273;-64
2020/12/14 01:36:05;;;;;;;50.75;26.67;;;4.20;99.90;;;;;;5097932;28;20208;-64
2020/12/14 01:38:32;;;;;;;48.63;27.38;;;4.30;99.90;;;;;;5087817;28;20197;-64
2020/12/14 01:40:59;;;;;;;47.70;28.23;;;4.20;99.90;;;;;;5097838;28;20715;-64
2020/12/14 01:43:26;;;;;;;57.05;27.75;;;4.10;99.90;;;;;;5096338;28;20210;-64
2020/12/14 01:45:53;;;;;;;64.72;28.65;;;4.10;99.90;;;;;;5096860;28;20209;-65
2020/12/14 01:48:23;;;;;;;39.05;23.85;;;4.20;99.90;;;;;;5097942;28;20515;-64
2020/12/14 01:50:51;;;;;;;54.13;25.95;;;4.20;99.90;;;;;;5095750;28;20239;-63
2020/12/14 01:53:20;;;;;;;51.35;26.80;;;4.20;99.90;;;;;;5096094;28;20283;-64
2020/12/14 01:55:49;;;;;;;56.08;28.90;;;4.20;99.90;;;;;;5095159;28;20556;-64
2020/12/14 01:58:16;;;;;;;50.30;26.73;;;4.20;99.90;;;;;;5095497;28;20202;-64
2020/12/14 02:00:43;;;;;;;51.42;28.75;;;4.10;99.90;;;;;;5092611;28;20203;-64
2020/12/14 02:03:10;;;;;;;50.83;28.50;;;4.20;99.90;;;;;;5092837;28;20251;-64
2020/12/14 02:05:36;;;;;;;58.10;26.27;;;4.20;99.90;;;;;;5093364;28;20278;-64
2020/12/14 02:08:05;;;;;;;60.38;30.90;;;4.20;99.90;;;;;;5092754;28;20212;-64
2020/12/14 02:10:32;;;;;;;48.17;25.38;;;4.20;99.90;;;;;;5090497;28;20256;-64
2020/12/14 02:12:59;;;;;;;59.30;28.38;;;4.30;99.90;;;;;;5086974;28;20209;-63
2020/12/14 02:15:25;;;;;;;45.50;26.27;;;4.20;99.90;;;;;;5090195;28;20400;-64
2020/12/14 02:17:52;;;;;;;50.08;27.13;;;4.20;99.90;;;;;;5091594;28;20739;-64
2020/12/14 02:20:19;;;;;;;70.50;32.00;;;4.20;99.90;;;;;;5092884;28;20740;-63
2020/12/14 02:22:45;;;;;;;47.55;25.63;;;4.10;99.90;;;;;;5091136;28;20205;-65
2020/12/14 02:25:12;;;;;;;46.03;27.55;;;4.20;99.90;;;;;;5096445;28;20201;-63
2020/12/14 02:27:38;;;;;;;58.25;27.42;;;4.20;99.90;;;;;;5091053;28;20483;-63
2020/12/14 02:30:06;;;;;;;60.78;31.23;;;4.30;99.90;;;;;;5092628;28;20240;-64
2020/12/14 02:32:33;;;;;;;52.13;27.88;;;4.30;99.90;;;;;;5092169;28;20292;-64
2020/12/14 02:35:00;;;;;;;58.35;28.33;;;4.20;99.90;;;;;;5090771;28;20264;-63
2020/12/14 02:37:29;;;;;;;47.97;25.92;;;4.20;99.90;;;;;;5095448;28;20202;-63
2020/12/14 02:39:56;;;;;;;46.72;28.08;;;4.30;99.90;;;;;;5092367;28;20226;-62
2020/12/14 02:42:25;;;;;;;40.10;27.13;;;4.30;99.90;;;;;;5093132;28;20222;-62
2020/12/14 02:44:52;;;;;;;44.42;26.23;;;4.20;99.90;;;;;;5095178;28;20216;-62
2020/12/14 02:47:20;;;;;;;54.40;28.05;;;4.20;99.90;;;;;;5095543;28;20273;-62
2020/12/14 02:49:47;;;;;;;44.88;24.80;;;4.10;99.90;;;;;;5089131;28;20250;-62
2020/12/14 02:52:14;;;;;;;47.70;27.50;;;4.20;99.90;;;;;;5094391;28;20212;-62
2020/12/14 02:54:43;;;;;;;43.35;26.30;;;4.20;99.90;;;;;;5087912;28;20358;-63
2020/12/14 02:57:11;;;;;;;46.38;27.10;;;4.20;99.90;;;;;;5093773;28;20305;-63
2020/12/14 02:59:37;;;;;;;60.90;28.98;;;4.20;99.90;;;;;;5096492;28;20209;-62
2020/12/14 03:02:04;;;;;;;46.72;29.70;;;4.20;99.90;;;;;;5092317;28;20198;-63
2020/12/14 03:04:32;;;;;;;52.75;27.52;;;4.10;99.90;;;;;;5094610;28;20547;-63
2020/12/14 03:06:59;;;;;;;51.08;28.45;;;4.10;99.90;;;;;;5097090;28;20213;-63
2020/12/14 03:09:25;;;;;;;64.85;29.25;;;4.20;99.90;;;;;;5087502;28;20217;-63
2020/12/14 03:11:52;;;;;;;50.05;27.33;;;4.20;99.90;;;;;;5089756;28;20248;-63
2020/12/14 03:14:18;;;;;;;46.67;27.05;;;4.30;99.90;;;;;;5093194;28;20210;-62
2020/12/14 03:16:50;;;;;;;64.22;27.27;;;4.20;99.90;;;;;;5097468;28;20304;-62
2020/12/14 03:19:18;;;;;;;49.03;24.27;;;4.20;99.90;;;;;;5094807;28;20241;-63
2020/12/14 03:21:46;;;;;;;53.65;28.05;;;4.20;99.90;;;;;;5087291;28;20264;-62
2020/12/14 03:24:12;;;;;;;51.92;28.55;;;4.20;99.90;;;;;;5097686;28;20215;-63
2020/12/14 03:26:39;;;;;;;54.92;27.13;;;4.10;99.90;;;;;;5095824;28;20205;-63
2020/12/14 03:29:06;;;;;;;50.40;28.20;;;4.30;99.90;;;;;;5095106;28;20619;-63
2020/12/14 03:31:33;;;;;;;60.05;29.42;;;4.30;99.90;;;;;;5093275;28;20228;-62
2020/12/14 03:34:00;;;;;;;50.20;27.38;;;4.30;99.90;;;;;;5098682;28;20272;-62
2020/12/14 03:36:26;;;;;;;47.28;27.55;;;4.20;99.90;;;;;;5094778;28;20205;-62
2020/12/14 03:38:54;;;;;;;51.80;25.55;;;4.30;99.90;;;;;;5094585;28;20209;-63
2020/12/14 03:41:23;;;;;;;51.13;25.45;;;4.20;99.90;;;;;;5098055;28;20219;-63
2020/12/14 03:43:52;;;;;;;52.10;24.08;;;4.20;99.90;;;;;;5093334;28;20244;-63
2020/12/14 03:46:24;;;;;;;57.60;27.40;;;4.20;99.90;;;;;;5089832;28;20216;-62
2020/12/14 03:48:53;;;;;;;61.55;27.50;;;4.20;99.90;;;;;;5093566;28;20196;-62
2020/12/14 03:51:21;;;;;;;53.00;26.42;;;4.20;99.90;;;;;;5085450;28;20235;-62
2020/12/14 03:53:48;;;;;;;62.75;24.92;;;4.20;99.90;;;;;;5088869;28;20210;-62
2020/12/14 03:56:22;;;;;;;47.00;26.50;;;4.20;99.90;;;;;;5092855;28;20258;-63
2020/12/14 03:58:50;;;;;;;51.85;28.10;;;4.20;99.90;;;;;;5092208;28;20279;-63
2020/12/14 04:01:24;;;;;;;51.20;28.02;;;4.20;99.90;;;;;;5094700;28;20217;-62
2020/12/14 04:03:51;;;;;;;48.50;26.50;;;4.20;99.90;;;;;;5098340;28;20511;-62
2020/12/14 04:06:26;;;;;;;59.45;28.15;;;4.20;99.90;;;;;;5098464;28;20205;-62
2020/12/14 04:08:54;;;;;;;53.33;27.75;;;4.20;99.90;;;;;;5097800;28;20204;-62
2020/12/14 04:11:21;;;;;;;45.33;25.55;;;4.30;99.90;;;;;;5096143;28;20229;-63
2020/12/14 04:13:50;;;;;;;44.08;26.25;;;4.20;99.90;;;;;;5091489;28;20214;-63
2020/12/14 04:16:17;;;;;;;45.67;25.08;;;4.20;99.90;;;;;;5096329;28;20460;-62
2020/12/14 04:18:44;;;;;;;45.78;27.77;;;4.30;99.90;;;;;;5097185;28;20242;-62
2020/12/14 04:21:10;;;;;;;53.13;22.13;;;4.20;99.90;;;;;;5097157;28;20213;-63
2020/12/14 04:23:37;;;;;;;52.08;26.02;;;4.30;99.90;;;;;;5096224;28;20476;-63
2020/12/14 04:26:04;;;;;;;46.88;26.05;;;4.20;99.90;;;;;;5099554;28;20223;-63
2020/12/14 04:28:31;;;;;;;40.03;22.95;;;4.30;99.90;;;;;;5087391;28;20209;-63
2020/12/14 04:30:59;;;;;;;51.35;24.85;;;4.20;99.90;;;;;;5097072;28;20268;-63
2020/12/14 04:33:26;;;;;;;40.67;23.23;;;4.20;99.90;;;;;;5097332;28;20547;-63
2020/12/14 04:35:53;;;;;;;41.15;24.52;;;4.20;99.90;;;;;;5098555;28;20305;-63
2020/12/14 04:38:19;;;;;;;45.40;23.40;;;4.20;99.90;;;;;;5096427;28;20219;-61
2020/12/14 04:40:46;;;;;;;46.13;24.00;;;4.20;99.90;;;;;;5092889;28;20546;-67
2020/12/14 04:43:15;;;;;;;58.15;27.05;;;4.20;99.90;;;;;;5095841;28;20452;-62
2020/12/14 04:45:44;;;;;;;48.03;25.95;;;4.20;99.90;;;;;;5090718;28;20400;-61
2020/12/14 04:48:12;;;;;;;45.17;25.83;;;4.20;99.90;;;;;;5099409;28;20209;-61
2020/12/14 04:50:40;;;;;;;38.88;22.75;;;4.30;99.90;;;;;;5098011;28;20230;-61
2020/12/14 04:53:07;;;;;;;42.50;24.30;;;4.20;99.90;;;;;;5093957;28;20209;-61
2020/12/14 04:55:38;;;;;;;48.83;27.58;;;4.20;99.90;;;;;;5094779;28;20204;-61
2020/12/14 04:58:06;;;;;;;45.78;26.13;;;4.10;99.90;;;;;;5099200;28;20209;-62
2020/12/14 05:00:34;;;;;;;43.10;24.52;;;4.20;99.90;;;;;;5094277;28;20232;-62
2020/12/14 05:03:00;;;;;;;42.70;23.67;;;4.10;99.90;;;;;;5097018;28;20213;-62
2020/12/14 05:05:28;;;;;;;40.58;23.15;;;4.10;99.90;;;;;;5091479;28;20217;-62
2020/12/14 05:07:56;;;;;;;31.15;21.35;;;4.10;99.90;;;;;;5092562;28;20210;-63
2020/12/14 05:10:26;;;;;;;43.05;23.98;;;4.00;99.90;;;;;;5094735;28;20556;-62
2020/12/14 05:12:53;;;;;;;40.83;22.40;;;4.00;99.90;;;;;;5099103;28;20216;-61
2020/12/14 05:15:31;;;;;;;44.80;23.38;;;3.90;99.90;;;;;;5094734;28;20238;-63
2020/12/14 05:18:12;;;;;;;39.42;24.13;;;3.70;99.90;;;;;;5096933;28;20234;-61
2020/12/14 05:20:40;;;;;;;47.45;23.00;;;3.60;99.90;;;;;;5090561;28;20221;-61
2020/12/14 05:23:10;;;;;;;39.53;23.58;;;3.40;99.90;;;;;;5095978;28;20218;-62
2020/12/14 05:25:37;;;;;;;37.22;23.40;;;3.40;99.90;;;;;;5096537;28;20580;-62
2020/12/14 05:28:17;;;;;;;47.65;25.45;;;3.40;99.90;;;;;;5089848;28;20200;-61
2020/12/14 05:30:48;;;;;;;47.45;21.88;;;3.20;99.90;;;;;;5096578;28;20230;-62
2020/12/14 05:33:18;;;;;;;51.65;24.75;;;3.10;99.90;;;;;;5094157;28;20224;-62
2020/12/14 05:35:46;;;;;;;35.95;22.88;;;3.10;99.90;;;;;;5097026;28;20608;-61
2020/12/14 05:38:15;;;;;;;46.13;24.63;;;2.90;99.90;;;;;;5100030;28;20541;-62
2020/12/14 05:40:44;;;;;;;45.10;25.30;;;2.80;99.90;;;;;;5090093;28;20294;-62
2020/12/14 05:43:13;;;;;;;47.13;22.02;;;2.70;99.90;;;;;;5098740;28;20208;-62
2020/12/14 05:45:40;;;;;;;46.20;26.10;;;2.70;99.90;;;;;;5095391;28;20267;-61
2020/12/14 05:48:21;;;;;;;49.70;25.33;;;2.70;99.90;;;;;;5094856;28;20213;-65
2020/12/14 05:50:52;;;;;;;55.55;25.70;;;2.50;99.90;;;;;;5094765;28;20222;-61
2020/12/14 05:53:20;;;;;;;46.35;23.83;;;2.50;99.90;;;;;;5094277;28;20224;-61
2020/12/14 05:55:47;;;;;;;41.90;26.50;;;2.40;99.90;;;;;;5095842;28;20200;-61
2020/12/14 05:58:15;;;;;;;50.95;26.13;;;2.40;99.90;;;;;;5096355;28;20615;-61
2020/12/14 06:00:46;;;;;;;40.00;21.65;;;2.40;99.90;;;;;;5095034;28;20274;-62
2020/12/14 06:03:13;;;;;;;54.25;27.20;;;2.50;99.90;;;;;;5098286;28;20224;-63
2020/12/14 06:05:41;;;;;;;47.17;28.63;;;2.60;99.90;;;;;;5096086;28;20206;-63
2020/12/14 06:08:41;;;;;;;44.80;25.73;;;2.70;99.90;;;;;;5095520;28;20327;-62
2020/12/14 06:11:08;;;;;;;52.63;26.73;;;2.90;99.90;;;;;;5096676;28;20225;-61
2020/12/14 06:13:45;;;;;;;44.92;28.27;;;3.00;99.90;;;;;;5096811;28;20210;-62
2020/12/14 06:16:20;;;;;;;48.78;25.20;;;3.20;99.90;;;;;;5097483;28;20203;-65
2020/12/14 06:18:48;;;;;;;50.45;24.75;;;3.30;99.90;;;;;;5071084;28;20236;-61
2020/12/14 06:21:39;;;;;;;45.40;25.13;;;3.30;99.90;;;;;;5077979;28;20246;-61
2020/12/14 06:24:13;;;;;;;56.17;28.85;;;3.30;99.90;;;;;;5078328;28;20207;-62
2020/12/14 06:26:44;;;;;;;58.78;27.73;;;3.30;99.90;;;;;;5083476;28;20519;-62
2020/12/14 06:29:31;;;;;;;50.85;31.33;;;3.30;99.90;;;;;;5080962;28;20209;-63
2020/12/14 06:31:58;;;;;;;62.80;29.30;;;3.30;99.90;;;;;;5083683;28;20248;-63
2020/12/14 06:34:31;;;;;;;49.22;27.85;;;3.20;99.90;;;;;;5083741;28;20209;-62
2020/12/14 06:37:02;;;;;;;47.38;29.67;;;3.10;99.90;;;;;;5076500;28;20213;-61
2020/12/14 06:39:37;;;;;;;68.25;31.40;;;3.10;99.90;;;;;;5086854;28;20204;-63
2020/12/14 06:42:07;;;;;;;62.75;32.22;;;3.10;99.90;;;;;;5077017;28;20239;-64
2020/12/14 06:44:43;;;;;;;57.20;30.88;;;3.00;99.90;;;;;;5085240;28;20227;-62
2020/12/14 06:47:15;;;;;;;73.20;30.33;;;3.00;99.90;;;;;;5081379;28;20210;-62
2020/12/14 06:49:43;;;;;;;73.88;32.95;;;2.90;99.90;;;;;;5079713;28;20209;-61
2020/12/14 06:52:09;;;;;;;63.83;30.15;;;2.90;99.90;;;;;;5081196;28;20825;-61
2020/12/14 06:54:45;;;;;;;55.97;33.60;;;2.90;99.90;;;;;;5079118;28;20518;-61
2020/12/14 06:57:15;;;;;;;52.25;32.58;;;2.90;99.90;;;;;;5095072;28;20408;-61
2020/12/14 07:00:00;;;;;;;54.90;30.00;;;2.90;99.90;;;;;;5094226;28;20208;-61
2020/12/14 07:02:41;;;;;;;61.45;36.15;;;2.90;99.90;;;;;;5097427;28;20236;-62
2020/12/14 07:05:29;;;;;;;73.70;35.72;;;2.90;99.90;;;;;;5084158;28;20210;-63
2020/12/14 07:07:59;;;;;;;60.95;33.67;;;2.90;99.90;;;;;;5086819;28;20230;-62
2020/12/14 07:10:28;;;;;;;57.80;30.95;;;2.90;99.90;;;;;;5098270;28;20295;-63
2020/12/14 07:12:56;;;;;;;66.47;34.47;;;3.00;99.90;;;;;;5094882;28;20207;-62
2020/12/14 07:15:37;;;;;;;57.78;30.40;;;3.00;99.90;;;;;;5087477;28;20258;-62
2020/12/14 07:18:07;;;;;;;73.47;35.83;;;3.10;99.90;;;;;;5090644;28;20642;-62
2020/12/14 07:20:35;;;;;;;69.35;36.55;;;3.10;99.90;;;;;;5094089;28;20251;-61
2020/12/14 07:23:09;;;;;;;60.53;33.20;;;3.20;99.90;;;;;;5097806;28;20210;-61
2020/12/14 07:25:35;;;;;;;55.63;33.75;;;3.30;99.90;;;;;;5093931;28;20208;-61
2020/12/14 07:28:03;;;;;;;55.55;35.00;;;3.20;99.90;;;;;;5090446;28;20518;-62
2020/12/14 07:30:30;;;;;;;72.28;35.05;;;3.10;99.90;;;;;;5094690;28;20241;-62
2020/12/14 07:32:59;;;;;;;70.50;36.85;;;3.10;99.90;;;;;;5093428;28;20228;-62
2020/12/14 07:35:26;;;;;;;56.53;32.70;;;3.10;99.90;;;;;;5093871;28;20216;-62
2020/12/14 07:37:53;;;;;;;59.35;36.55;;;3.10;99.90;;;;;;5100913;28;20218;-62
2020/12/14 07:40:20;;;;;;;53.92;30.25;;;3.10;99.90;;;;;;5095356;28;20207;-62
2020/12/14 07:42:47;;;;;;;71.75;35.65;;;3.20;99.90;;;;;;5099584;28;20225;-61
2020/12/14 07:45:18;;;;;;;67.75;33.30;;;3.30;99.90;;;;;;5089905;28;20207;-62
2020/12/14 07:47:49;;;;;;;65.13;35.53;;;3.50;99.90;;;;;;5100633;28;20421;-62
2020/12/14 07:50:16;;;;;;;76.55;35.17;;;3.60;99.90;;;;;;5097380;28;20262;-62
2020/12/14 07:52:43;;;;;;;83.40;38.78;;;3.60;99.90;;;;;;5094676;28;20207;-61
2020/12/14 07:55:11;;;;;;;76.50;38.63;;;3.70;99.90;;;;;;5098520;28;20208;-62
2020/12/14 07:57:41;;;;;;;66.30;36.75;;;3.90;99.90;;;;;;5092678;28;20196;-63
2020/12/14 08:00:10;;;;;;;74.43;36.25;;;3.80;99.90;;;;;;5090385;28;20205;-61
2020/12/14 08:02:41;;;;;;;68.88;37.28;;;3.90;99.90;;;;;;5096779;28;20286;-62
2020/12/14 08:05:18;;;;;;;57.33;33.05;;;4.00;99.90;;;;;;5099066;28;20428;-62
2020/12/14 08:07:44;;;;;;;61.78;34.20;;;4.00;99.90;;;;;;5098320;28;20391;-62
2020/12/14 08:10:20;;;;;;;56.13;32.50;;;4.20;99.90;;;;;;5100795;28;20520;-62
2020/12/14 08:12:47;;;;;;;78.85;38.60;;;4.30;99.90;;;;;;5098357;28;20354;-62
2020/12/14 08:15:17;;;;;;;73.43;34.03;;;4.50;99.90;;;;;;5101794;28;20206;-63
2020/12/14 08:17:45;;;;;;;62.88;32.10;;;4.30;99.90;;;;;;5099681;28;20201;-62
2020/12/14 08:20:29;;;;;;;70.72;31.77;;;4.40;99.90;;;;;;5102536;28;20563;-62
2020/12/14 08:22:59;;;;;;;56.28;33.00;;;4.50;99.90;;;;;;5085495;28;20212;-62
2020/12/14 08:25:28;;;;;;;69.32;31.77;;;4.50;99.90;;;;;;5088105;28;20202;-62
2020/12/14 08:28:00;;;;;;;55.83;31.23;;;4.70;99.90;;;;;;5100917;28;20497;-62
2020/12/14 08:30:28;;;;;;;79.22;31.95;;;4.70;99.90;;;;;;5099918;28;20730;-62
2020/12/14 08:33:11;;;;;;;62.55;34.58;;;4.70;99.90;;;;;;5100972;28;20228;-62
2020/12/14 08:35:39;;;;;;;52.40;28.63;;;4.70;99.90;;;;;;5088406;28;20209;-62
2020/12/14 08:38:15;;;;;;;50.97;29.27;;;4.50;99.90;;;;;;5101515;28;20206;-63
2020/12/14 08:41:03;;;;;;;52.97;29.90;;;4.60;99.90;;;;;;5093766;28;20523;-64
2020/12/14 08:43:32;;;;;;;59.53;30.98;;;4.60;99.90;;;;;;5080238;28;20206;-64
2020/12/14 08:46:07;;;;;;;56.17;28.85;;;4.70;99.90;;;;;;5089702;28;20451;-63
2020/12/14 08:48:55;;;;;;;48.85;27.00;;;4.80;99.90;;;;;;5100270;28;20468;-64
2020/12/14 08:51:33;;;;;;;57.45;31.10;;;4.60;99.90;;;;;;5098083;28;20423;-64
2020/12/14 08:54:13;;;;;;;54.30;28.45;;;4.70;99.90;;;;;;5099337;28;20214;-65
2020/12/14 08:56:41;;;;;;;49.35;32.22;;;4.60;99.90;;;;;;5096579;28;20213;-64
2020/12/14 08:59:15;;;;;;;63.55;31.70;;;4.70;99.90;;;;;;5087534;28;20208;-64
2020/12/14 09:02:00;;;;;;;65.00;29.27;;;4.50;99.90;;;;;;5080731;28;20209;-63
2020/12/14 09:04:32;;;;;;;53.72;29.58;;;4.60;99.90;;;;;;5082167;28;20248;-64
2020/12/14 09:06:59;;;;;;;63.47;30.02;;;4.80;99.90;;;;;;5084819;28;20237;-63
2020/12/14 09:09:31;;;;;;;59.10;31.25;;;4.90;99.90;;;;;;5090683;28;20269;-64
2020/12/14 09:11:59;;;;;;;49.83;28.73;;;4.80;99.90;;;;;;5085644;28;20237;-64
2020/12/14 09:14:31;;;;;;;55.25;27.65;;;4.90;99.90;;;;;;5094149;28;20217;-65
2020/12/14 09:17:01;;;;;;;57.83;29.00;;;5.00;99.90;;;;;;5067100;28;20260;-65
2020/12/14 09:19:31;;;;;;;52.47;26.73;;;5.00;99.90;;;;;;5082893;28;20456;-65
2020/12/14 09:21:58;;;;;;;62.13;30.98;;;5.10;99.90;;;;;;5089629;28;20245;-63
2020/12/14 09:24:27;;;;;;;62.47;30.25;;;5.00;99.90;;;;;;5098938;28;20661;-63
2020/12/14 09:27:05;;;;;;;50.80;25.90;;;5.20;99.90;;;;;;5087438;28;20463;-64
2020/12/14 09:29:33;;;;;;;43.33;26.48;;;5.20;99.90;;;;;;5088002;28;20267;-65
2020/12/14 09:32:00;;;;;;;53.30;29.15;;;5.40;99.90;;;;;;5090478;28;20251;-64
2020/12/14 09:34:28;;;;;;;42.30;21.85;;;5.50;99.90;;;;;;5090933;28;20272;-65
2020/12/14 09:36:57;;;;;;;44.95;23.42;;;5.50;99.90;;;;;;5094933;28;20207;-65
2020/12/14 09:39:25;;;;;;;55.13;27.60;;;5.40;99.90;;;;;;5099187;28;20267;-64
2020/12/14 09:41:55;;;;;;;61.30;24.52;;;5.50;99.90;;;;;;5095297;28;20233;-64
2020/12/14 09:44:24;;;;;;;58.47;25.48;;;5.60;99.90;;;;;;5090412;28;20278;-64
2020/12/14 09:46:51;;;;;;;38.85;22.15;;;5.50;99.90;;;;;;5096813;28;20209;-65
2020/12/14 09:49:19;;;;;;;51.63;23.05;;;5.40;99.90;;;;;;5097098;28;20228;-63
2020/12/14 09:51:46;;;;;;;56.03;26.48;;;5.70;99.90;;;;;;5097104;28;20233;-64
2020/12/14 09:54:13;;;;;;;51.25;23.73;;;5.80;99.90;;;;;;5097546;28;20255;-63
2020/12/14 09:56:41;;;;;;;55.65;26.83;;;5.70;99.90;;;;;;5089118;28;20381;-64
2020/12/14 09:59:09;;;;;;;43.80;23.67;;;5.90;99.90;;;;;;5087925;28;20323;-65
2020/12/14 10:01:36;;;;;;;42.83;22.45;;;5.80;99.90;;;;;;5088352;28;20237;-64
2020/12/14 10:04:03;;;;;;;39.83;22.60;;;5.90;99.90;;;;;;5098200;28;20488;-64
2020/12/14 10:06:31;;;;;;;46.00;22.92;;;6.10;99.90;;;;;;5084357;28;20277;-64
2020/12/14 10:08:58;;;;;;;45.58;22.52;;;6.10;99.90;;;;;;5092786;28;20661;-66
2020/12/14 10:11:26;;;;;;;59.78;24.20;;;6.00;99.90;;;;;;5095884;28;20225;-64
2020/12/14 10:13:53;;;;;;;55.15;24.27;;;6.00;99.90;;;;;;5097151;28;20206;-65
2020/12/14 10:16:21;;;;;;;42.83;22.58;;;6.00;99.90;;;;;;5096660;28;20431;-64
2020/12/14 10:18:48;;;;;;;36.08;20.15;;;6.00;99.90;;;;;;5088375;28;20238;-65
2020/12/14 10:21:16;;;;;;;44.28;20.95;;;6.10;99.90;;;;;;5096753;28;20504;-64
2020/12/14 10:23:43;;;;;;;45.33;21.73;;;6.20;99.90;;;;;;5093870;28;20228;-64
2020/12/14 10:26:11;;;;;;;42.20;21.83;;;6.30;99.90;;;;;;5095520;28;20492;-63
2020/12/14 10:28:38;;;;;;;45.10;24.70;;;6.40;99.90;;;;;;5094996;28;20206;-65
2020/12/14 10:31:05;;;;;;;36.30;19.90;;;6.40;99.90;;;;;;5096673;28;20234;-64
2020/12/14 10:33:33;;;;;;;40.22;18.10;;;6.50;99.90;;;;;;5093993;28;20291;-64
2020/12/14 10:36:07;;;;;;;47.63;19.80;;;6.50;99.90;;;;;;5093945;28;20545;-64
2020/12/14 10:38:34;;;;;;;31.23;18.55;;;6.50;99.90;;;;;;5085983;28;20231;-65
2020/12/14 10:41:01;;;;;;;45.45;21.98;;;6.60;99.90;;;;;;5088811;28;20202;-65
2020/12/14 10:43:28;;;;;;;38.60;17.50;;;6.60;99.90;;;;;;5087390;28;20207;-65
2020/12/14 10:45:55;;;;;;;58.22;22.65;;;6.50;99.90;;;;;;5096519;28;21186;-65
2020/12/14 10:48:21;;;;;;;33.30;19.58;;;6.50;99.90;;;;;;5091666;28;20240;-64
2020/12/14 10:50:48;;;;;;;49.95;24.25;;;6.50;99.90;;;;;;5088880;28;20302;-64
2020/12/14 10:53:15;;;;;;;41.25;21.58;;;6.00;99.90;;;;;;5081657;28;20199;-64
2020/12/14 10:55:41;;;;;;;39.75;22.42;;;6.50;99.90;;;;;;5096267;28;20209;-65
2020/12/14 10:58:08;;;;;;;28.77;16.45;;;6.50;99.90;;;;;;5095235;28;20216;-64
2020/12/14 11:00:35;;;;;;;36.50;18.08;;;6.80;99.90;;;;;;5090247;28;20392;-63
2020/12/14 11:03:02;;;;;;;44.45;21.10;;;6.70;99.90;;;;;;5096746;28;20202;-65
2020/12/14 11:05:29;;;;;;;35.40;17.70;;;6.60;99.90;;;;;;5095994;28;20505;-65
2020/12/14 11:07:56;;;;;;;28.60;17.10;;;6.60;99.90;;;;;;5095730;28;20256;-65
2020/12/14 11:10:23;;;;;;;28.80;14.85;;;6.70;99.90;;;;;;5091550;28;20616;-63
2020/12/14 11:12:50;;;;;;;36.47;17.23;;;6.70;99.90;;;;;;5095007;28;20428;-65
2020/12/14 11:15:16;;;;;;;25.98;14.45;;;6.80;99.90;;;;;;5089235;28;20211;-65
2020/12/14 11:17:44;;;;;;;28.85;15.50;;;6.80;99.90;;;;;;5093699;28;20380;-65
2020/12/14 11:20:12;;;;;;;28.63;15.40;;;6.80;99.90;;;;;;5097552;28;20234;-65
2020/12/14 11:22:42;;;;;;;32.22;15.68;;;6.70;99.90;;;;;;5096418;28;20210;-64
2020/12/14 11:25:10;;;;;;;29.67;14.25;;;6.70;99.90;;;;;;5088422;28;20207;-65
2020/12/14 11:27:37;;;;;;;38.40;19.02;;;6.80;99.90;;;;;;5093522;28;20496;-63
2020/12/14 11:30:07;;;;;;;27.30;14.90;;;6.90;99.90;;;;;;5085652;28;20209;-64
2020/12/14 11:32:34;;;;;;;28.20;15.43;;;6.90;99.90;;;;;;5080330;28;20540;-63
2020/12/14 11:35:00;;;;;;;23.33;14.30;;;7.00;99.90;;;;;;5092430;28;20229;-65
2020/12/14 11:37:27;;;;;;;26.98;14.60;;;7.10;99.90;;;;;;5094167;28;20207;-64
2020/12/14 11:39:54;;;;;;;31.02;15.98;;;7.10;99.90;;;;;;5095693;28;20206;-64
2020/12/14 11:42:21;;;;;;;28.13;14.70;;;7.20;99.90;;;;;;5080769;28;20562;-63
2020/12/14 11:44:49;;;;;;;26.30;12.20;;;7.30;99.90;;;;;;5081862;28;20203;-64
2020/12/14 11:47:16;;;;;;;24.10;13.52;;;7.30;99.90;;;;;;5079615;28;20248;-64
2020/12/14 11:49:43;;;;;;;30.63;14.93;;;7.30;99.90;;;;;;5079353;28;20388;-64
2020/12/14 11:52:10;;;;;;;25.23;13.93;;;7.40;99.90;;;;;;5083018;28;20234;-64
2020/12/14 11:54:37;;;;;;;32.67;15.95;;;7.40;99.90;;;;;;5089492;28;20466;-65
2020/12/14 11:57:08;;;;;;;23.88;11.00;;;7.40;99.90;;;;;;5089714;28;20206;-63
2020/12/14 11:59:34;;;;;;;17.40;8.82;;;7.50;99.90;;;;;;5076075;28;20207;-64
2020/12/14 12:02:01;;;;;;;11.75;8.30;;;7.60;99.90;;;;;;5083227;28;20211;-65
2020/12/14 12:04:28;;;;;;;11.85;6.90;;;7.50;99.90;;;;;;5094305;28;20391;-65
2020/12/14 12:06:54;;;;;;;5.65;5.03;;;7.60;99.90;;;;;;5095029;28;20225;-65
2020/12/14 12:09:35;;;;;;;5.75;3.70;;;7.60;99.90;;;;;;5085365;28;20202;-64
2020/12/14 12:12:02;;;;;;;4.88;3.08;;;7.60;99.90;;;;;;5093095;28;20305;-64
2020/12/14 12:14:30;;;;;;;6.03;3.42;;;7.60;99.90;;;;;;5085488;28;20481;-65
2020/12/14 12:16:57;;;;;;;7.40;3.63;;;7.70;99.90;;;;;;5096794;28;20436;-64
2020/12/14 12:19:24;;;;;;;3.22;2.92;;;7.70;99.90;;;;;;5087323;28;20234;-64
2020/12/14 12:21:51;;;;;;;9.48;4.78;;;7.70;99.90;;;;;;5082881;28;20206;-63
2020/12/14 12:24:21;;;;;;;4.15;3.50;;;7.70;99.90;;;;;;5097140;28;20206;-64
2020/12/14 12:26:49;;;;;;;4.25;3.63;;;7.70;99.90;;;;;;5096933;28;20269;-64
2020/12/14 12:29:20;;;;;;;5.03;3.40;;;7.70;99.90;;;;;;5087952;28;20551;-64
2020/12/14 12:31:54;;;;;;;6.07;4.55;;;7.70;99.90;;;;;;5085597;28;20555;-65
2020/12/14 12:34:32;;;;;;;3.70;3.40;;;7.70;99.90;;;;;;5087731;28;20206;-65
2020/12/14 12:37:00;;;;;;;6.40;3.47;;;7.70;99.90;;;;;;5098831;28;20213;-63
2020/12/14 12:39:27;;;;;;;6.90;3.90;;;7.70;99.90;;;;;;5089628;28;20237;-65
2020/12/14 12:41:56;;;;;;;4.88;3.58;;;7.70;99.90;;;;;;5095527;28;20560;-64
2020/12/14 12:44:23;;;;;;;3.88;3.10;;;7.70;99.90;;;;;;5089472;28;20209;-65
2020/12/14 12:46:50;;;;;;;4.10;3.70;;;7.60;99.90;;;;;;5082187;28;20207;-64